Time;durP1;ratioP1;P1;durP2;ratioP2;P2;SDS_P1;SDS_P2;PMS_P1;PMS_P2;Temp;Humidity;BMP_temperature;BMP_pressure;BME280_temperature;BME280_humidity;BME280_pressure;Samples;Min_cycle;Max_cycle;Signal;HPM_P1;HPM_P2
2023/02/22 00:01:20;;;;;;;8.05;3.70;;;;;;;11.46;44.06;100638.66;5010094;28;20061;-84
2023/02/22 00:03:50;;;;;;;6.88;3.17;;;;;;;11.32;44.53;100642.84;5020505;28;20030;-84
2023/02/22 00:06:18;;;;;;;6.50;3.60;;;;;;;11.41;44.57;100638.31;5005399;28;20083;-85
2023/02/22 00:08:46;;;;;;;8.18;3.17;;;;;;;11.41;44.38;100627.56;4996726;28;20431;-84
2023/02/22 00:11:13;;;;;;;6.07;3.45;;;;;;;11.58;44.16;100634.63;4987543;28;20116;-85
2023/02/22 00:13:43;;;;;;;6.50;3.58;;;;;;;11.65;43.75;100629.41;5006055;28;20049;-87
2023/02/22 00:16:13;;;;;;;7.93;3.63;;;;;;;11.62;43.71;100624.34;4997932;28;20042;-82
2023/02/22 00:18:39;;;;;;;54.85;21.23;;;;;;;11.75;43.98;100634.59;4993143;28;20172;-83
2023/02/22 00:21:09;;;;;;;13.80;8.00;;;;;;;11.71;43.92;100627.91;5002936;28;20060;-85
2023/02/22 00:23:38;;;;;;;22.50;10.55;;;;;;;11.64;44.24;100610.75;4973194;28;20411;-85
2023/02/22 00:26:12;;;;;;;9.38;4.95;;;;;;;11.60;43.83;100624.53;4986516;28;20053;-83
2023/02/22 00:28:41;;;;;;;7.60;3.88;;;;;;;11.63;44.01;100631.41;5007874;28;20158;-82
2023/02/22 00:31:08;;;;;;;5.90;3.42;;;;;;;11.68;44.08;100636.28;5004456;28;20036;-84
2023/02/22 00:33:37;;;;;;;7.82;3.65;;;;;;;11.49;44.32;100645.56;5007027;28;20065;-83
2023/02/22 00:36:03;;;;;;;7.38;3.65;;;;;;;11.28;44.90;100644.19;4987836;28;20569;-83
2023/02/22 00:38:30;;;;;;;8.40;3.63;;;;;;;11.00;45.45;100619.41;5007216;28;20089;-83
2023/02/22 00:40:56;;;;;;;6.75;3.70;;;;;;;11.07;45.60;100647.31;4987854;28;20033;-83
2023/02/22 00:43:23;;;;;;;8.32;3.90;;;;;;;11.00;46.05;100646.31;5000230;28;20041;-84
2023/02/22 00:45:51;;;;;;;7.88;4.20;;;;;;;10.93;45.79;100640.75;4990436;28;20437;-84
2023/02/22 00:48:18;;;;;;;7.68;4.35;;;;;;;10.68;46.08;100631.75;5007968;28;20283;-84
2023/02/22 00:50:47;;;;;;;12.23;4.25;;;;;;;10.77;46.24;100656.84;4985148;28;20046;-86
2023/02/22 00:53:18;;;;;;;7.93;4.03;;;;;;;10.69;46.39;100644.19;4990129;28;20042;-85
2023/02/22 00:55:45;;;;;;;7.63;4.00;;;;;;;10.72;46.34;100649.25;5000005;28;20046;-85
2023/02/22 00:58:12;;;;;;;8.13;4.25;;;;;;;10.77;46.31;100646.94;5005872;28;20482;-84
2023/02/22 01:00:40;;;;;;;6.82;4.22;;;;;;;10.75;46.41;100645.41;4999679;28;20052;-85
2023/02/22 01:03:09;;;;;;;8.57;4.32;;;;;;;10.71;46.33;100642.19;5007131;28;20458;-86
2023/02/22 01:05:37;;;;;;;9.88;4.80;;;;;;;10.77;46.36;100629.94;5000718;28;20041;-86
2023/02/22 01:08:05;;;;;;;8.70;5.25;;;;;;;10.75;46.48;100648.09;5007630;28;20316;-84
2023/02/22 01:10:31;;;;;;;16.20;6.32;;;;;;;10.53;46.91;100628.00;4999732;28;20030;-86
2023/02/22 01:13:07;;;;;;;;;;;;;;;10.71;46.88;100652.09;4996160;28;20198;-85
2023/02/22 01:15:38;;;;;;;12.20;6.50;;;;;;;10.55;47.27;100631.38;5002165;28;19967;-84
2023/02/22 01:18:05;;;;;;;15.65;7.75;;;;;;;10.40;47.52;100620.38;5008807;28;20029;-84
2023/02/22 01:20:30;;;;;;;14.05;6.85;;;;;;;10.48;47.69;100643.75;4994800;28;20034;-84
2023/02/22 01:22:57;;;;;;;13.63;6.40;;;;;;;10.57;47.42;100640.13;4987282;28;20080;-83
2023/02/22 01:25:27;;;;;;;10.80;5.85;;;;;;;10.59;47.49;100643.47;5002590;28;20038;-85
2023/02/22 01:27:53;;;;;;;10.30;5.55;;;;;;;10.62;47.27;100642.31;5000764;28;20042;-85
2023/02/22 01:30:24;;;;;;;11.23;5.40;;;;;;;10.53;47.24;100615.38;4988157;28;20038;-85
2023/02/22 01:32:52;;;;;;;12.00;5.25;;;;;;;10.67;47.33;100640.81;4987664;28;20493;-84
2023/02/22 01:35:22;;;;;;;11.88;4.80;;;;;;;10.60;47.42;100631.72;4996008;28;20033;-82
2023/02/22 01:37:49;;;;;;;8.63;4.63;;;;;;;10.69;47.38;100641.50;4996345;28;20042;-85
2023/02/22 01:40:24;;;;;;;8.98;4.85;;;;;;;10.63;47.60;100642.16;5017404;28;20034;-82
2023/02/22 01:42:56;;;;;;;11.82;5.28;;;;;;;10.63;47.75;100642.16;4995450;28;20044;-83
2023/02/22 01:45:31;;;;;;;9.20;5.13;;;;;;;10.75;47.17;100638.16;5003475;28;20033;-84
2023/02/22 01:48:38;;;;;;;10.45;4.78;;;;;;;10.82;47.34;100640.22;5008326;28;20383;-83
2023/02/22 01:51:09;;;;;;;10.55;5.40;;;;;;;10.85;47.24;100643.41;4918184;29;20165;-83
2023/02/22 01:53:39;;;;;;;9.80;5.10;;;;;;;10.83;47.33;100642.72;4925932;29;20115;-83
2023/02/22 01:56:05;;;;;;;8.32;5.25;;;;;;;10.82;47.41;100638.38;4949535;28;20426;-83
2023/02/22 01:58:33;;;;;;;9.48;4.90;;;;;;;10.76;47.55;100639.84;4986170;28;20092;-83
2023/02/22 02:01:19;;;;;;;11.48;5.35;;;;;;;10.74;47.52;100620.34;4980672;28;20066;-83
2023/02/22 02:03:48;;;;;;;14.70;6.57;;;;;;;10.82;47.43;100637.53;5001438;28;20037;-82
2023/02/22 02:06:13;;;;;;;13.45;6.70;;;;;;;10.75;47.28;100622.03;5007242;28;20120;-82
2023/02/22 02:08:57;;;;;;;15.55;7.35;;;;;;;10.92;47.20;100643.59;5010702;28;20045;-83
2023/02/22 02:11:24;;;;;;;11.48;5.85;;;;;;;10.93;47.24;100643.44;5005802;28;20058;-84
2023/02/22 02:13:53;;;;;;;11.77;5.30;;;;;;;10.93;47.25;100630.00;4976701;28;20045;-85
2023/02/22 02:16:20;;;;;;;12.07;5.78;;;;;;;10.89;47.14;100628.63;5005190;28;20099;-81
2023/02/22 02:18:46;;;;;;;19.75;7.97;;;;;;;10.91;47.48;100631.16;5011516;28;20061;-85
2023/02/22 02:21:32;;;;;;;;;;;;;;;10.97;47.47;100666.31;5007283;28;20052;-88
2023/02/22 02:24:01;;;;;;;11.65;4.78;;;;;;;10.98;47.62;100661.78;5007841;28;19921;-84
2023/02/22 02:26:44;;;;;;;9.85;5.10;;;;;;;10.87;47.92;100667.47;5009456;28;20038;-85
2023/02/22 02:29:28;;;;;;;10.20;4.90;;;;;;;10.91;47.88;100660.72;5009710;28;20032;-83
2023/02/22 02:31:57;;;;;;;8.55;4.55;;;;;;;10.86;48.21;100663.91;5001082;28;20038;-82
2023/02/22 02:34:58;;;;;;;8.75;4.45;;;;;;;10.87;48.75;100670.16;5008709;28;20451;-83
2023/02/22 02:37:36;;;;;;;8.57;4.30;;;;;;;10.86;48.68;100668.44;4991540;28;20038;-81
2023/02/22 02:40:19;;;;;;;8.02;4.20;;;;;;;10.78;48.82;100659.34;5006439;28;20042;-84
2023/02/22 02:43:00;;;;;;;8.65;4.70;;;;;;;10.76;49.14;100666.72;4976640;28;20033;-83
2023/02/22 02:45:45;;;;;;;8.07;4.65;;;;;;;10.75;49.14;100675.81;4995373;28;20034;-82
2023/02/22 02:48:11;;;;;;;;;;;;;;;10.85;49.00;100675.69;5008398;28;20045;-83
2023/02/22 02:50:45;;;;;;;11.50;4.53;;;;;;;10.70;49.11;100672.78;5005591;28;19913;-83
2023/02/22 02:53:12;;;;;;;10.73;5.70;;;;;;;10.68;49.43;100664.03;5005288;28;20053;-81
2023/02/22 02:55:38;;;;;;;11.32;6.60;;;;;;;10.74;49.32;100668.75;5002605;28;20045;-83
2023/02/22 02:58:04;;;;;;;12.55;6.65;;;;;;;10.72;49.39;100668.09;5007946;28;20053;-82
2023/02/22 03:00:37;;;;;;;11.82;6.15;;;;;;;10.77;49.47;100676.50;5003585;28;20088;-82
2023/02/22 03:03:06;;;;;;;8.52;5.40;;;;;;;10.77;49.53;100679.19;4994688;28;20050;-82
2023/02/22 03:06:00;;;;;;;10.75;5.78;;;;;;;10.76;49.55;100682.03;4999760;28;20042;-82
2023/02/22 03:08:49;;;;;;;9.43;5.70;;;;;;;10.76;49.53;100688.25;5007837;28;20037;-83
2023/02/22 03:11:27;;;;;;;15.40;6.10;;;;;;;10.65;50.11;100685.88;5002627;28;20114;-81
2023/02/22 03:13:58;;;;;;;10.20;5.38;;;;;;;10.43;50.05;100659.53;4991689;28;20037;-82
2023/02/22 03:17:06;;;;;;;7.57;4.78;;;;;;;10.56;50.35;100681.44;4991215;28;20626;-82
2023/02/22 03:19:35;;;;;;;11.68;5.43;;;;;;;10.49;50.65;100692.00;4999569;28;20073;-82
2023/02/22 03:22:25;;;;;;;9.35;5.43;;;;;;;10.45;50.61;100687.09;5008984;28;20041;-81
2023/02/22 03:25:08;;;;;;;11.55;5.50;;;;;;;10.33;50.90;100686.53;4990484;28;20487;-82
2023/02/22 03:27:43;;;;;;;9.40;5.53;;;;;;;10.18;51.01;100685.38;5007955;28;20070;-82
2023/02/22 03:30:36;;;;;;;10.52;5.53;;;;;;;10.20;51.61;100696.81;4989282;28;20073;-82
2023/02/22 03:33:11;;;;;;;9.05;5.38;;;;;;;10.14;51.72;100698.31;5005740;28;20048;-82
2023/02/22 03:35:43;;;;;;;11.32;5.85;;;;;;;9.99;51.88;100684.56;5007011;28;20168;-81
2023/02/22 03:38:10;;;;;;;15.40;5.97;;;;;;;9.97;52.21;100704.53;4960824;28;20041;-81
2023/02/22 03:41:00;;;;;;;12.55;6.00;;;;;;;9.83;52.60;100696.06;4986207;28;20073;-82
2023/02/22 03:44:05;;;;;;;10.70;6.35;;;;;;;9.82;52.52;100705.09;5006194;28;20041;-85
2023/02/22 03:46:31;;;;;;;15.02;6.80;;;;;;;9.77;52.72;100699.34;5005088;28;20081;-87
2023/02/22 03:49:23;;;;;;;12.18;6.93;;;;;;;9.59;53.19;100688.59;5006680;28;20056;-87
2023/02/22 03:51:49;;;;;;;12.68;6.70;;;;;;;9.63;53.27;100708.78;5006186;28;20065;-86
2023/02/22 03:54:15;;;;;;;12.00;6.55;;;;;;;9.49;53.41;100703.97;4990365;28;20041;-87
2023/02/22 03:57:13;;;;;;;12.77;7.53;;;;;;;9.41;53.54;100693.13;5006738;28;20096;-83
2023/02/22 03:59:38;;;;;;;14.93;7.38;;;;;;;9.43;53.73;100705.38;4982967;28;20034;-83
2023/02/22 04:02:04;;;;;;;18.70;8.50;;;;;;;9.34;54.04;100698.28;5009548;28;20083;-85
2023/02/22 04:04:29;;;;;;;21.30;8.53;;;;;;;9.11;54.22;100678.22;4999359;28;20364;-83
2023/02/22 04:06:56;;;;;;;15.30;7.80;;;;;;;9.17;54.35;100691.88;5004723;28;20417;-85
2023/02/22 04:09:22;;;;;;;12.20;6.45;;;;;;;9.09;54.65;100702.53;4993579;28;20111;-84
2023/02/22 04:11:48;;;;;;;13.60;6.63;;;;;;;9.03;54.78;100690.53;4999231;28;20421;-85
2023/02/22 04:14:15;;;;;;;10.80;6.18;;;;;;;9.03;54.82;100687.88;4987238;28;20111;-84
2023/02/22 04:16:41;;;;;;;14.00;6.85;;;;;;;9.03;54.88;100682.50;5004770;28;20087;-84
2023/02/22 04:19:06;;;;;;;14.47;7.10;;;;;;;8.91;55.01;100675.66;5006105;28;20025;-83
2023/02/22 04:21:32;;;;;;;13.55;6.53;;;;;;;8.96;54.80;100675.22;4989025;28;20305;-83
2023/02/22 04:23:59;;;;;;;16.33;7.73;;;;;;;8.99;55.08;100691.88;5008115;28;20639;-84
2023/02/22 04:26:24;;;;;;;14.77;7.78;;;;;;;8.94;55.46;100690.59;5006900;28;20026;-84
2023/02/22 04:28:52;;;;;;;14.05;8.02;;;;;;;8.90;55.27;100682.03;5008055;28;20037;-84
2023/02/22 04:31:17;;;;;;;14.52;8.02;;;;;;;8.87;55.42;100685.00;5001393;28;20525;-84
2023/02/22 04:33:44;;;;;;;20.00;9.43;;;;;;;8.81;55.72;100680.25;4988490;28;20050;-84
2023/02/22 04:36:12;;;;;;;17.38;9.77;;;;;;;8.84;55.76;100687.97;5000403;28;20041;-83
2023/02/22 04:38:37;;;;;;;16.38;9.40;;;;;;;8.85;55.62;100695.06;4978151;28;20034;-84
2023/02/22 04:41:03;;;;;;;15.77;8.50;;;;;;;8.86;55.98;100691.34;5003035;28;20045;-83
2023/02/22 04:43:28;;;;;;;16.70;8.85;;;;;;;8.80;55.68;100689.25;5001680;28;20124;-84
2023/02/22 04:45:55;;;;;;;14.63;8.13;;;;;;;8.84;55.91;100704.06;5005169;28;20042;-83
2023/02/22 04:48:22;;;;;;;15.50;8.57;;;;;;;8.82;56.27;100700.69;4999555;28;20044;-84
2023/02/22 04:50:50;;;;;;;13.40;7.68;;;;;;;8.81;56.20;100707.06;4994865;28;20040;-82
2023/02/22 04:53:16;;;;;;;15.55;8.55;;;;;;;8.73;56.39;100698.88;4994524;28;20034;-84
2023/02/22 04:55:43;;;;;;;17.20;8.43;;;;;;;8.73;56.68;100717.66;4992141;28;20033;-83
2023/02/22 04:58:08;;;;;;;19.35;8.73;;;;;;;8.59;56.60;100678.78;5000113;28;20430;-84
2023/02/22 05:00:35;;;;;;;20.50;9.40;;;;;;;8.72;56.84;100711.47;4970576;28;20045;-85
2023/02/22 05:03:01;;;;;;;21.13;10.73;;;;;;;8.60;56.71;100681.31;4997007;28;20311;-86
2023/02/22 05:05:26;;;;;;;24.60;13.85;;;;;;;8.81;56.77;100709.72;5005092;28;20034;-83
2023/02/22 05:07:52;;;;;;;25.97;12.63;;;;;;;8.76;56.64;100712.84;5008902;28;20069;-84
2023/02/22 05:10:17;;;;;;;19.67;11.35;;;;;;;8.82;56.76;100714.09;5001251;28;20038;-84
2023/02/22 05:12:43;;;;;;;31.50;12.60;;;;;;;8.85;56.83;100716.50;4996019;28;20065;-86
2023/02/22 05:15:09;;;;;;;32.90;12.35;;;;;;;8.90;56.53;100722.25;5009417;28;20062;-83
2023/02/22 05:17:35;;;;;;;38.63;15.20;;;;;;;8.90;56.27;100724.06;5012148;28;20110;-87
2023/02/22 05:20:02;;;;;;;25.55;11.02;;;;;;;8.79;56.41;100711.72;5017323;28;20454;-86
2023/02/22 05:22:31;;;;;;;26.13;13.98;;;;;;;8.80;56.55;100724.13;5004027;28;20141;-88
2023/02/22 05:24:57;;;;;;;26.15;12.30;;;;;;;8.93;56.48;100740.72;5007906;28;20038;-86
2023/02/22 05:27:22;;;;;;;30.52;12.55;;;;;;;8.91;56.30;100723.94;4987583;28;20046;-85
2023/02/22 05:29:48;;;;;;;28.85;12.38;;;;;;;9.06;56.15;100757.31;5002883;28;20118;-86
2023/02/22 05:32:14;;;;;;;31.65;12.88;;;;;;;9.14;56.05;100755.72;5005730;28;20427;-85
2023/02/22 05:34:40;;;;;;;23.23;11.77;;;;;;;9.13;56.01;100737.94;5002717;28;20046;-84
2023/02/22 05:37:08;;;;;;;29.83;12.13;;;;;;;9.26;56.15;100765.25;5007878;28;20057;-84
2023/02/22 05:39:33;;;;;;;40.85;12.68;;;;;;;9.33;55.94;100768.19;5010674;28;20042;-84
2023/02/22 05:42:00;;;;;;;47.70;15.95;;;;;;;9.26;55.76;100747.31;5013243;28;20129;-84
2023/02/22 05:44:26;;;;;;;;;;;;;;;9.43;55.73;100764.44;5017047;28;20146;-84
2023/02/22 05:46:52;;;;;;;42.85;14.00;;;;;;;9.40;55.71;100767.41;5013742;28;19928;-86
2023/02/22 05:49:19;;;;;;;31.60;12.03;;;;;;;9.42;55.52;100762.75;4998975;28;20046;-88
2023/02/22 05:51:45;;;;;;;18.00;9.68;;;;;;;9.60;55.10;100769.97;4988124;28;20415;-84
2023/02/22 05:54:11;;;;;;;19.05;9.32;;;;;;;9.59;54.63;100749.50;5006241;28;20068;-84
2023/02/22 05:56:38;;;;;;;20.90;10.85;;;;;;;9.88;54.17;100779.69;5004915;28;20462;-85
2023/02/22 05:59:04;;;;;;;22.42;10.48;;;;;;;9.96;54.25;100776.22;5008038;28;20064;-86
2023/02/22 06:01:30;;;;;;;27.08;12.00;;;;;;;10.07;53.84;100791.25;5006546;28;20046;-87
2023/02/22 06:03:55;;;;;;;20.55;10.38;;;;;;;10.16;53.28;100771.53;5007525;28;20037;-87
2023/02/22 06:06:21;;;;;;;24.15;10.10;;;;;;;10.34;52.77;100785.78;4989615;28;20053;-87
2023/02/22 06:08:48;;;;;;;20.42;9.88;;;;;;;11.84;50.00;100795.22;5004777;28;20056;-88
2023/02/22 06:11:20;;;;;;;19.83;10.40;;;;;;;14.54;43.78;100791.56;4990428;28;20032;-90
2023/02/22 06:13:55;;;;;;;19.95;10.00;;;;;;;16.83;38.56;100782.09;5016762;28;20141;-87
2023/02/22 06:16:25;;;;;;;26.45;10.82;;;;;;;18.53;34.93;100774.03;5002301;28;20051;-88
2023/02/22 06:18:50;;;;;;;21.92;11.10;;;;;;;20.37;31.74;100789.00;5016865;28;20199;-82
2023/02/22 06:21:16;;;;;;;;;;;;;;;21.67;28.98;100784.50;5005678;28;20409;-88
2023/02/22 06:26:34;;;;;;;29.35;12.60;;;;;;;24.27;25.03;100776.91;5002363;28;20175;-84
2023/02/22 06:29:04;;;;;;;44.33;13.95;;;;;;;25.20;23.49;100764.34;4981675;28;20321;-85
2023/02/22 06:31:32;;;;;;;42.08;14.95;;;;;;;25.85;22.52;100765.34;4990459;28;20427;-85
2023/02/22 06:33:59;;;;;;;48.53;15.45;;;;;;;26.87;21.51;100779.16;4959063;28;20038;-89
2023/02/22 06:36:26;;;;;;;36.08;13.60;;;;;;;27.52;20.60;100765.97;4957906;28;20030;-87
2023/02/22 06:38:51;;;;;;;47.25;15.20;;;;;;;28.23;19.95;100792.06;4974231;28;20558;-85
2023/02/22 06:41:17;;;;;;;33.40;12.77;;;;;;;28.99;18.73;100771.00;4955951;28;20038;-86
2023/02/22 06:43:44;;;;;;;27.98;15.25;;;;;;;29.53;18.38;100786.84;4973995;28;20093;-86
2023/02/22 06:46:11;;;;;;;28.13;12.75;;;;;;;29.90;17.81;100787.50;4959978;28;20044;-83
2023/02/22 06:48:39;;;;;;;31.25;12.15;;;;;;;29.82;17.76;100769.53;4992912;28;20038;-86
2023/02/22 06:51:14;;;;;;;38.08;12.95;;;;;;;30.04;17.76;100774.63;4969372;28;20038;-89
2023/02/22 06:53:41;;;;;;;30.70;11.55;;;;;;;30.33;17.08;100796.91;4977755;28;20154;-85
2023/02/22 06:56:09;;;;;;;20.38;9.77;;;;;;;30.24;16.95;100796.66;4954514;28;20101;-83
2023/02/22 06:58:35;;;;;;;14.73;9.38;;;;;;;30.56;16.26;100792.56;4971795;28;20038;-84
2023/02/22 07:01:02;;;;;;;17.00;9.35;;;;;;;30.63;16.44;100772.78;4983373;28;20483;-84
2023/02/22 07:03:28;;;;;;;16.40;9.15;;;;;;;31.08;16.10;100787.31;4974907;28;20105;-84
2023/02/22 07:05:57;;;;;;;14.20;9.05;;;;;;;31.22;15.96;100796.59;4956592;28;20668;-88
2023/02/22 07:08:23;;;;;;;25.77;12.20;;;;;;;31.68;15.92;100790.47;4960823;28;20088;-86
2023/02/22 07:11:00;;;;;;;19.17;10.07;;;;;;;31.37;15.93;100789.19;4992124;28;20030;-88
2023/02/22 07:13:30;;;;;;;21.50;9.90;;;;;;;30.98;16.07;100795.78;4975562;28;20030;-84
2023/02/22 07:15:56;;;;;;;15.85;10.20;;;;;;;30.41;16.81;100778.81;4975687;28;20541;-86
2023/02/22 07:18:23;;;;;;;20.55;10.40;;;;;;;31.02;15.98;100777.38;4993667;28;20034;-85
2023/02/22 07:20:50;;;;;;;23.52;10.68;;;;;;;31.46;15.89;100776.31;4972411;28;20140;-82
2023/02/22 07:23:16;;;;;;;14.70;9.77;;;;;;;32.01;15.30;100793.34;4972905;28;20116;-80
2023/02/22 07:25:42;;;;;;;22.75;9.88;;;;;;;31.59;15.61;100800.59;4968347;28;20150;-84
2023/02/22 07:28:11;;;;;;;16.35;8.55;;;;;;;31.64;15.47;100777.47;4957951;28;20093;-88
2023/02/22 07:30:38;;;;;;;13.70;7.20;;;;;;;30.98;15.87;100781.91;4980528;28;20109;-86
2023/02/22 07:33:08;;;;;;;12.00;7.53;;;;;;;31.00;15.69;100765.75;4970855;28;20105;-87
2023/02/22 07:35:36;;;;;;;12.52;7.28;;;;;;;30.71;16.19;100763.81;4970014;28;20042;-87
2023/02/22 07:38:04;;;;;;;13.65;8.40;;;;;;;29.90;16.67;100780.03;4961086;28;20066;-82
2023/02/22 07:40:36;;;;;;;12.90;8.05;;;;;;;29.63;16.75;100775.72;4987864;28;20057;-83
2023/02/22 07:43:14;;;;;;;9.13;7.47;;;;;;;29.83;16.77;100758.19;4990866;28;20515;-85
2023/02/22 07:45:40;;;;;;;12.20;7.53;;;;;;;29.60;16.61;100776.28;4988711;28;20121;-86
2023/02/22 07:48:12;;;;;;;11.98;6.80;;;;;;;29.54;16.89;100741.41;4958055;28;20022;-90
2023/02/22 07:50:38;;;;;;;12.70;7.45;;;;;;;29.99;16.90;100780.22;4970249;28;20481;-87
2023/02/22 07:53:09;;;;;;;11.43;7.25;;;;;;;30.21;16.40;100766.75;4949686;28;20034;-82
2023/02/22 07:55:37;;;;;;;15.20;7.72;;;;;;;30.63;16.08;100761.69;4969362;28;20042;-85
2023/02/22 07:58:04;;;;;;;14.43;7.70;;;;;;;30.47;15.79;100772.94;4985797;28;20026;-87
2023/02/22 08:00:38;;;;;;;11.80;6.60;;;;;;;29.57;16.60;100785.19;4985238;28;20038;-85
2023/02/22 08:03:06;;;;;;;12.13;6.53;;;;;;;30.00;16.55;100759.72;4961159;28;20147;-86
2023/02/22 08:05:33;;;;;;;10.85;6.75;;;;;;;30.66;16.34;100764.69;4976915;28;20045;-90
2023/02/22 08:07:59;;;;;;;11.98;6.88;;;;;;;29.91;16.66;100765.03;4962623;28;20031;-86
2023/02/22 08:10:26;;;;;;;14.40;7.13;;;;;;;30.80;16.06;100773.16;4971627;28;20045;-87
2023/02/22 08:12:53;;;;;;;13.80;7.43;;;;;;;31.31;15.41;100780.91;4988665;28;20034;-87
2023/02/22 08:15:30;;;;;;;12.75;7.70;;;;;;;31.64;15.30;100775.50;4961756;28;20160;-82
2023/02/22 08:17:57;;;;;;;11.02;6.95;;;;;;;30.77;15.69;100787.63;4957076;28;20038;-80
2023/02/22 08:20:26;;;;;;;13.40;6.63;;;;;;;30.01;16.65;100776.03;4971889;28;20390;-79
2023/02/22 08:22:51;;;;;;;13.90;7.20;;;;;;;30.14;16.44;100757.94;4972569;28;20038;-85
2023/02/22 08:25:19;;;;;;;13.10;7.05;;;;;;;30.11;16.40;100785.41;4971768;28;20448;-82
2023/02/22 08:27:45;;;;;;;9.40;7.10;;;;;;;30.90;15.95;100767.50;4990181;28;20108;-83
2023/02/22 08:30:16;;;;;;;11.65;7.07;;;;;;;30.20;16.56;100783.66;4973476;28;20030;-86
2023/02/22 08:32:42;;;;;;;15.50;6.80;;;;;;;29.34;16.84;100749.84;4985277;28;20040;-81
2023/02/22 08:35:08;;;;;;;13.45;6.53;;;;;;;28.30;17.91;100781.56;4984751;28;20030;-80
2023/02/22 08:37:35;;;;;;;11.48;6.03;;;;;;;28.90;17.71;100761.63;4987136;28;20054;-81
2023/02/22 08:40:01;;;;;;;9.35;5.97;;;;;;;29.64;17.03;100777.38;4956154;28;20097;-81
2023/02/22 08:42:26;;;;;;;10.88;6.30;;;;;;;30.64;16.39;100764.16;4963476;28;20337;-81
2023/02/22 08:44:53;;;;;;;8.93;6.22;;;;;;;31.65;15.48;100779.94;4971357;28;20097;-81
2023/02/22 08:47:19;;;;;;;9.43;6.40;;;;;;;31.65;15.44;100777.16;4967710;28;20116;-82
2023/02/22 08:49:46;;;;;;;7.53;5.95;;;;;;;31.59;15.18;100766.44;4971131;28;20042;-80
2023/02/22 08:52:12;;;;;;;13.02;6.07;;;;;;;31.61;15.50;100778.03;4986482;28;20084;-80
2023/02/22 08:54:37;;;;;;;8.95;6.00;;;;;;;30.95;15.83;100768.59;4988300;28;20046;-83
2023/02/22 08:57:04;;;;;;;8.90;5.88;;;;;;;31.19;15.62;100777.75;4964435;28;20100;-81
2023/02/22 08:59:31;;;;;;;11.48;6.20;;;;;;;31.41;15.41;100782.75;4976094;28;20163;-80
2023/02/22 09:01:58;;;;;;;9.88;6.20;;;;;;;31.45;15.39;100780.22;4985534;28;20113;-85
2023/02/22 09:04:24;;;;;;;12.13;6.45;;;;;;;31.99;15.21;100767.78;4974788;28;20045;-80
2023/02/22 09:06:50;;;;;;;8.02;5.97;;;;;;;32.96;14.47;100780.00;5004074;28;20076;-81
2023/02/22 09:09:20;;;;;;;11.38;5.45;;;;;;;33.71;14.08;100793.81;4989205;28;20042;-79
2023/02/22 09:11:47;;;;;;;8.48;5.20;;;;;;;33.08;14.77;100787.84;4987201;28;20051;-81
2023/02/22 09:14:15;;;;;;;9.38;5.10;;;;;;;31.29;16.09;100787.91;4990379;28;20057;-81
2023/02/22 09:16:42;;;;;;;9.05;5.25;;;;;;;29.92;17.26;100786.09;4975981;28;20053;-80
2023/02/22 09:19:30;;;;;;;8.45;5.03;;;;;;;28.89;18.32;100795.91;4976316;28;20064;-81
2023/02/22 09:21:56;;;;;;;9.55;5.13;;;;;;;27.83;19.33;100788.16;4992584;28;20038;-80
2023/02/22 09:24:23;;;;;;;13.13;5.78;;;;;;;27.09;20.15;100779.00;4994087;28;20418;-80
2023/02/22 09:26:53;;;;;;;10.32;6.07;;;;;;;25.86;21.59;100802.81;4987429;28;20108;-82
2023/02/22 09:29:21;;;;;;;17.55;6.60;;;;;;;25.32;22.29;100783.47;4987325;28;20473;-82
2023/02/22 09:31:52;;;;;;;11.00;5.32;;;;;;;24.69;23.02;100806.75;4954343;28;20466;-79
2023/02/22 09:34:21;;;;;;;11.68;5.22;;;;;;;24.74;23.19;100793.91;4976425;28;20072;-81
2023/02/22 09:36:48;;;;;;;11.05;6.25;;;;;;;24.29;23.66;100796.72;4984000;28;20165;-80
2023/02/22 09:39:17;;;;;;;13.73;5.40;;;;;;;22.69;25.72;100775.38;4975519;28;20126;-80
2023/02/22 09:42:10;;;;;;;13.63;6.03;;;;;;;22.33;26.84;100805.44;4983519;28;20038;-80
2023/02/22 09:45:02;;;;;;;10.48;5.70;;;;;;;21.94;27.59;100804.13;4993839;28;20168;-80
2023/02/22 09:47:46;;;;;;;12.95;5.57;;;;;;;21.92;27.62;100806.28;4985894;28;20128;-80
2023/02/22 09:50:16;;;;;;;12.48;5.70;;;;;;;21.43;27.71;100781.66;4955943;28;20045;-80
2023/02/22 09:53:11;;;;;;;8.38;5.28;;;;;;;21.25;28.38;100804.34;4944272;28;20042;-79
2023/02/22 09:56:03;;;;;;;8.05;5.90;;;;;;;21.95;28.21;100799.50;4978019;28;20458;-80
2023/02/22 09:58:44;;;;;;;9.60;5.18;;;;;;;21.31;28.36;100782.66;4970583;28;20058;-81
2023/02/22 10:01:31;;;;;;;8.05;4.95;;;;;;;22.03;27.36;100802.75;4968591;28;20039;-80
2023/02/22 10:04:35;;;;;;;9.60;4.90;;;;;;;23.65;25.86;100807.88;4957111;28;20026;-81
2023/02/22 10:07:06;;;;;;;8.98;5.57;;;;;;;25.42;23.72;100782.75;4975622;28;20494;-82
2023/02/22 10:09:36;;;;;;;8.30;5.00;;;;;;;27.56;21.10;100791.09;4980886;28;20062;-82
2023/02/22 10:12:29;;;;;;;7.75;5.15;;;;;;;27.80;20.20;100772.09;4977158;28;20034;-80
2023/02/22 10:15:34;;;;;;;12.30;5.50;;;;;;;30.19;18.32;100788.38;4957044;28;20431;-80
2023/02/22 10:18:08;;;;;;;10.77;5.97;;;;;;;31.19;17.42;100776.91;4967801;28;20062;-81
2023/02/22 10:20:38;;;;;;;11.63;5.82;;;;;;;29.66;18.88;100782.63;4991414;28;20414;-82
2023/02/22 10:23:35;;;;;;;9.75;5.95;;;;;;;31.46;17.64;100779.09;4975612;28;20047;-80
2023/02/22 10:26:13;;;;;;;20.08;7.00;;;;;;;31.81;16.50;100776.94;4957241;28;20070;-79
2023/02/22 10:28:43;;;;;;;10.25;7.45;;;;;;;33.00;15.62;100763.50;4994034;28;20108;-81
2023/02/22 10:31:21;;;;;;;11.93;5.13;;;;;;;33.49;14.72;100759.16;4958825;28;20104;-81
2023/02/22 10:33:47;;;;;;;10.75;5.30;;;;;;;33.62;14.94;100771.41;4959410;28;20087;-80
2023/02/22 10:36:20;;;;;;;7.20;5.30;;;;;;;32.58;15.17;100765.41;4966170;28;20036;-80
2023/02/22 10:38:56;;;;;;;12.07;4.93;;;;;;;31.25;16.69;100757.09;4975876;28;20036;-81
2023/02/22 10:41:31;;;;;;;9.73;5.38;;;;;;;30.31;17.62;100752.00;4974203;28;20519;-81
2023/02/22 10:43:57;;;;;;;8.98;5.18;;;;;;;31.91;16.46;100763.72;4994256;28;20093;-81
2023/02/22 10:46:22;;;;;;;10.73;5.82;;;;;;;31.57;16.89;100761.16;4969567;28;20058;-80
2023/02/22 10:48:53;;;;;;;14.13;5.80;;;;;;;30.68;17.26;100764.41;4974736;28;20467;-81
2023/02/22 10:51:19;;;;;;;11.73;6.07;;;;;;;31.94;16.14;100749.22;4951311;28;20042;-82
2023/02/22 10:53:47;;;;;;;8.45;5.18;;;;;;;32.52;15.57;100753.56;4973239;28;20037;-82
2023/02/22 10:56:20;;;;;;;14.82;5.70;;;;;;;32.97;15.10;100753.81;4967545;28;20114;-81
2023/02/22 10:58:49;;;;;;;8.60;5.78;;;;;;;33.72;14.93;100750.88;4985360;28;20026;-80
2023/02/22 11:01:25;;;;;;;8.95;5.30;;;;;;;32.46;15.76;100754.75;4965190;28;20050;-81
2023/02/22 11:04:20;;;;;;;12.80;5.80;;;;;;;31.48;16.38;100760.19;4972635;28;20046;-80
2023/02/22 11:06:50;;;;;;;9.20;5.47;;;;;;;30.25;17.75;100755.91;4987910;28;20045;-81
2023/02/22 11:09:21;;;;;;;12.32;6.80;;;;;;;31.31;16.50;100746.78;4991943;28;20471;-81
2023/02/22 11:11:47;;;;;;;8.98;5.80;;;;;;;31.76;16.24;100741.72;4955018;28;20061;-80
2023/02/22 11:14:28;;;;;;;9.55;6.18;;;;;;;29.82;17.88;100727.97;4990786;28;20038;-81
2023/02/22 11:16:56;;;;;;;12.15;5.97;;;;;;;30.29;17.86;100740.38;4968806;28;20478;-81
2023/02/22 11:19:30;;;;;;;9.95;5.65;;;;;;;29.81;18.32;100749.31;4968386;28;20089;-83
2023/02/22 11:22:16;;;;;;;9.85;6.13;;;;;;;28.18;20.40;100751.44;4957842;28;20121;-79
2023/02/22 11:25:01;;;;;;;9.70;5.57;;;;;;;28.43;20.20;100747.00;4949158;28;20100;-80
2023/02/22 11:28:05;;;;;;;10.27;5.80;;;;;;;28.12;20.41;100757.22;4966251;28;20563;-80
2023/02/22 11:30:30;;;;;;;;;;;;;;;27.79;21.27;100754.72;4950052;28;20035;-80
2023/02/22 11:33:10;;;;;;;9.27;5.10;;;;;;;27.16;22.13;100752.00;4973625;28;19924;-80
2023/02/22 11:35:57;;;;;;;9.70;5.00;;;;;;;27.29;22.15;100749.88;4986884;28;20523;-79
2023/02/22 11:38:38;;;;;;;11.55;5.00;;;;;;;26.33;22.59;100744.28;4990476;28;20041;-79
2023/02/22 11:41:17;;;;;;;10.32;4.53;;;;;;;26.08;23.30;100761.47;4966644;28;20093;-78
2023/02/22 11:43:49;;;;;;;10.15;4.38;;;;;;;25.22;24.28;100751.16;4991571;28;20034;-80